createdAt,value
2018-06-29T00:01:14.722Z,100586.16
2018-06-29T00:03:42.690Z,100581.80
2018-06-29T00:06:10.781Z,100582.30
2018-06-29T00:08:38.741Z,100582.45
2018-06-29T00:11:06.713Z,100586.73
2018-06-29T00:13:34.608Z,100587.55
2018-06-29T00:16:02.606Z,100584.48
2018-06-29T00:18:30.470Z,100584.38
2018-06-29T00:20:58.673Z,100581.59
2018-06-29T00:23:34.786Z,100585.58
2018-06-29T00:26:03.238Z,100581.08
2018-06-29T00:28:31.141Z,100576.55
2018-06-29T00:30:59.477Z,100572.22
2018-06-29T00:33:27.392Z,100577.01
2018-06-29T00:35:55.318Z,100574.47
2018-06-29T00:38:23.235Z,100573.36
2018-06-29T00:40:54.195Z,100584.29
2018-06-29T00:43:22.205Z,100580.61
2018-06-29T00:45:50.338Z,100582.58
2018-06-29T00:48:21.088Z,100581.59
2018-06-29T00:50:49.185Z,100579.80
2018-06-29T00:53:17.026Z,100580.75
2018-06-29T00:55:44.969Z,100570.77
2018-06-29T00:58:12.873Z,100580.83
2018-06-29T01:00:40.834Z,100574.30
2018-06-29T01:03:08.737Z,100580.11
2018-06-29T01:05:36.709Z,100578.89
2018-06-29T01:08:04.657Z,100582.92
2018-06-29T01:10:32.589Z,100579.14
2018-06-29T01:13:00.609Z,100584.97
2018-06-29T01:15:28.573Z,100587.85
2018-06-29T01:17:56.464Z,100589.88
2018-06-29T01:20:24.400Z,100594.88
2018-06-29T01:22:52.566Z,100592.20
2018-06-29T01:25:20.488Z,100594.00
2018-06-29T01:27:48.440Z,100596.03
2018-06-29T01:30:16.360Z,100594.64
2018-06-29T01:32:44.321Z,100593.18
2018-06-29T01:35:12.273Z,100589.32
2018-06-29T01:37:40.177Z,100588.81
2018-06-29T01:40:08.109Z,100590.56
2018-06-29T01:42:35.964Z,100589.42
2018-06-29T01:45:04.621Z,100590.81
2018-06-29T01:47:35.968Z,100587.30
2018-06-29T01:50:03.977Z,100588.34
2018-06-29T01:52:31.931Z,100593.50
2018-06-29T01:54:59.821Z,100587.36
2018-06-29T01:57:27.675Z,100583.28
2018-06-29T01:59:55.609Z,100579.73
2018-06-29T02:02:23.517Z,100578.03
2018-06-29T02:04:51.410Z,100579.93
2018-06-29T02:07:19.272Z,100583.91
2018-06-29T02:09:47.162Z,100580.06
2018-06-29T02:12:15.190Z,100580.41
2018-06-29T02:14:43.003Z,100575.00
2018-06-29T02:17:10.925Z,100569.78
2018-06-29T02:19:38.853Z,100565.16
2018-06-29T02:22:06.861Z,100565.16
2018-06-29T02:24:34.854Z,100567.94
2018-06-29T02:27:02.728Z,100560.16
2018-06-29T02:29:30.541Z,100563.20
2018-06-29T02:31:58.422Z,100561.36
2018-06-29T02:34:26.333Z,100560.48
2018-06-29T02:36:54.217Z,100552.19
2018-06-29T02:39:22.106Z,100558.36
2018-06-29T02:41:50.117Z,100553.70
2018-06-29T02:44:17.917Z,100553.42
2018-06-29T02:46:45.861Z,100554.17
2018-06-29T02:49:13.782Z,100549.08
2018-06-29T02:51:41.816Z,100553.66
2018-06-29T02:54:09.789Z,100550.22
2018-06-29T02:56:37.665Z,100555.25
2018-06-29T02:59:05.608Z,100559.82
2018-06-29T03:01:33.529Z,100558.48
2018-06-29T03:04:01.906Z,100560.64
2018-06-29T03:06:29.748Z,100562.60
2018-06-29T03:08:57.635Z,100563.00
2018-06-29T03:11:25.555Z,100557.50
2018-06-29T03:13:53.469Z,100565.36
2018-06-29T03:16:21.436Z,100562.75
2018-06-29T03:18:49.253Z,100560.62
2018-06-29T03:21:17.166Z,100558.98
2018-06-29T03:23:45.085Z,100556.56
2018-06-29T03:26:13.005Z,100553.87
2018-06-29T03:28:40.925Z,100560.48
2018-06-29T03:31:08.873Z,100555.52
2018-06-29T03:33:36.745Z,100557.78
2018-06-29T03:36:04.717Z,100554.77
2018-06-29T03:38:32.632Z,100557.53
2018-06-29T03:41:00.521Z,100553.30
2018-06-29T03:43:28.412Z,100543.88
2018-06-29T03:45:56.345Z,100546.69
2018-06-29T03:48:24.232Z,100550.91
2018-06-29T03:50:52.194Z,100551.17
2018-06-29T03:53:20.126Z,100553.27
2018-06-29T03:55:47.972Z,100556.42
2018-06-29T03:58:15.924Z,100544.41
2018-06-29T04:00:43.821Z,100550.82
2018-06-29T04:03:11.693Z,100556.36
2018-06-29T04:05:39.630Z,100554.09
2018-06-29T04:08:07.471Z,100550.48
2018-06-29T04:10:35.394Z,100557.20
2018-06-29T04:13:03.439Z,100552.21
2018-06-29T04:15:31.202Z,100555.28
2018-06-29T04:17:59.073Z,100558.96
2018-06-29T04:20:27.015Z,100550.55
2018-06-29T04:22:55.453Z,100562.00
2018-06-29T04:25:23.378Z,100563.90
2018-06-29T04:27:51.309Z,100556.69
2018-06-29T04:30:19.301Z,100556.10
2018-06-29T04:32:47.232Z,100559.73
2018-06-29T04:35:15.201Z,100561.12
2018-06-29T04:37:42.997Z,100555.30
2018-06-29T04:40:10.965Z,100556.61
2018-06-29T04:42:38.885Z,100553.27
2018-06-29T04:45:06.848Z,100555.22
2018-06-29T04:47:34.770Z,100561.35
2018-06-29T04:50:02.669Z,100559.02
2018-06-29T04:52:30.525Z,100564.00
2018-06-29T04:54:58.477Z,100561.47
2018-06-29T04:57:26.405Z,100562.03
2018-06-29T04:59:54.329Z,100560.56
2018-06-29T05:02:22.252Z,100558.86
2018-06-29T05:04:50.165Z,100554.12
2018-06-29T05:07:18.177Z,100565.50
2018-06-29T05:09:46.153Z,100566.87
2018-06-29T05:12:14.073Z,100561.98
2018-06-29T05:14:41.960Z,100570.25
2018-06-29T05:17:09.829Z,100570.95
2018-06-29T05:19:37.905Z,100572.42
2018-06-29T05:22:05.884Z,100569.23
2018-06-29T05:24:33.783Z,100568.00
2018-06-29T05:27:01.656Z,100568.57
2018-06-29T05:29:29.660Z,100562.06
2018-06-29T05:31:57.622Z,100557.82
2018-06-29T05:34:25.477Z,100559.34
2018-06-29T05:36:53.434Z,100558.64
2018-06-29T05:39:21.323Z,100559.52
2018-06-29T05:41:49.238Z,100555.07
2018-06-29T05:44:17.069Z,100551.22
2018-06-29T05:46:44.939Z,100545.19
2018-06-29T05:49:12.811Z,100551.78
2018-06-29T05:51:40.650Z,100546.03
2018-06-29T05:54:08.488Z,100552.16
2018-06-29T05:56:36.366Z,100552.25
2018-06-29T05:59:04.731Z,100551.36
2018-06-29T06:01:32.668Z,100550.55
2018-06-29T06:04:00.604Z,100554.41
2018-06-29T06:06:28.553Z,100549.71
2018-06-29T06:08:56.497Z,100551.81
2018-06-29T06:11:24.385Z,100554.47
2018-06-29T06:13:52.327Z,100551.09
2018-06-29T06:16:20.273Z,100558.70
2018-06-29T06:18:48.329Z,100553.19
2018-06-29T06:21:16.215Z,100559.20
2018-06-29T06:23:44.131Z,100566.02
2018-06-29T06:26:12.053Z,100563.98
2018-06-29T06:28:39.934Z,100555.92
2018-06-29T06:31:07.828Z,100557.00
2018-06-29T06:33:35.722Z,100556.34
2018-06-29T06:36:03.641Z,100556.77
2018-06-29T06:38:31.513Z,100561.28
2018-06-29T06:40:59.420Z,100560.04
2018-06-29T06:43:27.296Z,100564.56
2018-06-29T06:45:55.241Z,100562.14
2018-06-29T06:48:23.197Z,100562.53
2018-06-29T06:50:51.125Z,100562.73
2018-06-29T06:53:18.997Z,100563.35
2018-06-29T06:55:46.925Z,100567.89
2018-06-29T06:58:14.753Z,100556.52
2018-06-29T07:00:42.644Z,100553.27
2018-06-29T07:03:10.545Z,100553.91
2018-06-29T07:05:38.389Z,100557.95
2018-06-29T07:08:06.341Z,100552.59
2018-06-29T07:10:34.220Z,100556.22
2018-06-29T07:13:02.080Z,100552.72
2018-06-29T07:15:29.964Z,100557.77
2018-06-29T07:17:57.781Z,100562.44
2018-06-29T07:20:25.597Z,100555.70
2018-06-29T07:22:53.501Z,100556.67
2018-06-29T07:25:21.353Z,100556.16
2018-06-29T07:27:49.269Z,100555.29
2018-06-29T07:30:17.192Z,100562.52
2018-06-29T07:32:45.103Z,100552.26
2018-06-29T07:35:12.965Z,100558.68
2018-06-29T07:37:40.833Z,100555.42
2018-06-29T07:40:08.733Z,100548.63
2018-06-29T07:42:36.605Z,100552.55
2018-06-29T07:45:04.944Z,100547.33
2018-06-29T07:47:32.901Z,100548.54
2018-06-29T07:50:00.760Z,100542.29
2018-06-29T07:52:28.680Z,100544.71
2018-06-29T07:54:56.620Z,100536.28
2018-06-29T07:57:24.517Z,100544.20
2018-06-29T07:59:52.394Z,100546.58
2018-06-29T08:02:20.253Z,100546.25
2018-06-29T08:04:52.455Z,100548.80
2018-06-29T08:07:21.142Z,100550.20
2018-06-29T08:09:49.061Z,100549.14
2018-06-29T08:12:17.228Z,100549.33
2018-06-29T08:14:45.160Z,100544.08
2018-06-29T08:17:12.997Z,100541.38
2018-06-29T08:19:40.873Z,100545.81
2018-06-29T08:22:08.759Z,100542.28
2018-06-29T08:24:53.570Z,100541.03
2018-06-29T08:27:21.505Z,100549.39
2018-06-29T08:29:49.386Z,100541.02
2018-06-29T08:32:17.337Z,100542.91
2018-06-29T08:34:45.146Z,100555.77
2018-06-29T08:37:13.041Z,100538.90
2018-06-29T08:39:40.977Z,100544.97
2018-06-29T08:42:08.834Z,100540.30
2018-06-29T08:44:36.713Z,100537.91
2018-06-29T08:47:10.312Z,100524.31
2018-06-29T08:49:38.284Z,100519.92
2018-06-29T08:52:06.254Z,100515.47
2018-06-29T08:54:34.161Z,100511.28
2018-06-29T08:57:02.109Z,100516.13
2018-06-29T08:59:30.018Z,100515.04
2018-06-29T09:01:57.966Z,100512.75
2018-06-29T09:04:25.776Z,100514.81
2018-06-29T09:06:53.666Z,100519.41
2018-06-29T09:09:21.537Z,100516.69
2018-06-29T09:11:49.417Z,100503.66
2018-06-29T09:14:18.392Z,100507.03
2018-06-29T09:16:52.118Z,100506.08
2018-06-29T09:19:20.135Z,100502.05
2018-06-29T09:21:56.901Z,100502.50
2018-06-29T09:24:26.689Z,100496.17
2018-06-29T09:26:54.582Z,100496.75
2018-06-29T09:29:25.517Z,100489.16
2018-06-29T09:31:53.457Z,100489.17
2018-06-29T09:34:21.341Z,100491.13
2018-06-29T09:36:49.835Z,100494.25
2018-06-29T09:39:17.729Z,100485.57
2018-06-29T09:41:45.577Z,100487.80
2018-06-29T09:44:13.662Z,100480.75
2018-06-29T09:46:41.641Z,100484.12
2018-06-29T09:49:09.576Z,100484.30
2018-06-29T09:51:37.469Z,100479.88
2018-06-29T09:54:05.624Z,100471.23
2018-06-29T09:56:33.544Z,100470.99
2018-06-29T09:59:01.602Z,100467.64
2018-06-29T10:01:29.595Z,100462.10
2018-06-29T10:03:57.415Z,100460.25
2018-06-29T10:06:25.317Z,100460.94
2018-06-29T10:08:53.116Z,100449.35
2018-06-29T10:11:21.036Z,100436.28
2018-06-29T10:13:48.936Z,100455.91
2018-06-29T10:16:16.807Z,100452.82
2018-06-29T10:18:44.629Z,100444.79
2018-06-29T10:21:12.549Z,100448.59
2018-06-29T10:23:40.421Z,100446.18
2018-06-29T10:26:08.302Z,100446.01
2018-06-29T10:28:36.242Z,100441.31
2018-06-29T10:31:04.093Z,100442.30
2018-06-29T10:33:31.950Z,100442.36
2018-06-29T10:35:59.900Z,100442.12
2018-06-29T10:38:27.757Z,100442.09
2018-06-29T10:40:55.681Z,100440.64
2018-06-29T10:43:23.541Z,100437.39
2018-06-29T10:45:51.341Z,100432.55
2018-06-29T10:48:19.241Z,100428.11
2018-06-29T10:50:47.115Z,100423.58
2018-06-29T10:53:15.042Z,100426.52
2018-06-29T10:55:42.983Z,100414.39
2018-06-29T10:58:12.909Z,100429.00
2018-06-29T11:00:40.928Z,100421.52
2018-06-29T11:03:08.749Z,100415.77
2018-06-29T11:05:36.680Z,100416.59
2018-06-29T11:08:04.749Z,100411.73
2018-06-29T11:10:32.641Z,100404.61
2018-06-29T11:13:01.686Z,100402.78
2018-06-29T11:15:33.579Z,100398.64
2018-06-29T11:18:01.472Z,100403.48
2018-06-29T11:20:29.364Z,100406.89
2018-06-29T11:22:57.201Z,100401.66
2018-06-29T11:25:25.075Z,100396.34
2018-06-29T11:27:52.901Z,100402.26
2018-06-29T11:30:20.776Z,100396.51
2018-06-29T11:32:49.040Z,100387.38
2018-06-29T11:35:16.959Z,100388.71
2018-06-29T11:37:44.789Z,100390.59
2018-06-29T11:40:12.747Z,100390.74
2018-06-29T11:42:40.706Z,100392.41
2018-06-29T11:45:08.599Z,100379.04
2018-06-29T11:47:36.684Z,100383.13
2018-06-29T11:50:04.972Z,100375.73
2018-06-29T11:52:32.883Z,100371.42
2018-06-29T11:55:00.784Z,100373.97
2018-06-29T11:57:28.709Z,100373.34
2018-06-29T11:59:56.601Z,100370.58
2018-06-29T12:02:24.400Z,100372.13
2018-06-29T12:04:52.301Z,100365.72
2018-06-29T12:07:20.263Z,100356.44
2018-06-29T12:09:48.065Z,100360.45
2018-06-29T12:12:15.989Z,100359.81
2018-06-29T12:14:43.948Z,100349.37
2018-06-29T12:17:14.592Z,100342.81
2018-06-29T12:19:42.703Z,100353.74
2018-06-29T12:22:10.543Z,100342.14
2018-06-29T12:24:38.468Z,100346.37
2018-06-29T12:27:06.341Z,100348.31
2018-06-29T12:29:34.181Z,100340.45
2018-06-29T12:32:02.041Z,100342.33
2018-06-29T12:34:29.996Z,100334.12
2018-06-29T12:36:57.968Z,100335.50
2018-06-29T12:39:25.817Z,100336.55
2018-06-29T12:41:53.665Z,100340.05
2018-06-29T12:44:21.549Z,100339.54
2018-06-29T12:46:49.374Z,100337.47
2018-06-29T12:49:17.277Z,100345.63
2018-06-29T12:51:45.195Z,100334.58
2018-06-29T12:54:13.141Z,100326.52
2018-06-29T12:56:41.069Z,100333.43
2018-06-29T12:59:09.873Z,100322.83
2018-06-29T13:01:37.853Z,100321.72
2018-06-29T13:04:05.804Z,100316.17
2018-06-29T13:06:33.800Z,100316.58
2018-06-29T13:09:01.706Z,100312.13
2018-06-29T13:11:29.508Z,100309.08
2018-06-29T13:13:57.457Z,100300.91
2018-06-29T13:16:25.277Z,100293.67
2018-06-29T13:18:53.164Z,100300.98
2018-06-29T13:21:20.989Z,100291.00
2018-06-29T13:23:48.890Z,100292.50
2018-06-29T13:26:16.725Z,100288.16
2018-06-29T13:28:44.517Z,100293.23
2018-06-29T13:31:12.388Z,100288.48
2018-06-29T13:33:40.283Z,100285.63
2018-06-29T13:36:08.171Z,100291.41
2018-06-29T13:38:36.065Z,100285.09
2018-06-29T13:41:04.037Z,100279.93
2018-06-29T13:43:31.936Z,100282.80
2018-06-29T13:45:59.824Z,100277.34
2018-06-29T13:48:27.632Z,100277.37
2018-06-29T13:50:55.521Z,100280.55
2018-06-29T13:53:23.473Z,100276.02
2018-06-29T13:55:51.349Z,100276.34
2018-06-29T13:58:19.215Z,100271.17
2018-06-29T14:00:48.222Z,100276.28
2018-06-29T14:03:16.129Z,100267.86
2018-06-29T14:05:47.585Z,100264.88
2018-06-29T14:08:18.563Z,100265.59
2018-06-29T14:10:46.596Z,100263.67
2018-06-29T14:13:14.411Z,100260.95
2018-06-29T14:15:42.451Z,100258.52
2018-06-29T14:18:10.341Z,100256.91
2018-06-29T14:20:38.272Z,100249.91
2018-06-29T14:23:06.272Z,100249.44
2018-06-29T14:25:34.193Z,100246.46
2018-06-29T14:28:02.090Z,100248.61
2018-06-29T14:30:29.962Z,100247.71
2018-06-29T14:32:57.845Z,100240.67
2018-06-29T14:35:25.689Z,100244.97
2018-06-29T14:37:53.985Z,100246.91
2018-06-29T14:40:21.869Z,100246.55
2018-06-29T14:42:49.789Z,100240.85
2018-06-29T14:45:17.718Z,100233.98
2018-06-29T14:47:45.597Z,100239.05
2018-06-29T14:50:13.488Z,100236.81
2018-06-29T14:52:41.324Z,100230.09
2018-06-29T14:55:09.272Z,100227.23
2018-06-29T14:57:37.230Z,100222.80
2018-06-29T15:00:07.892Z,100222.94
2018-06-29T15:02:35.769Z,100211.75
2018-06-29T15:05:03.726Z,100213.81
2018-06-29T15:07:31.617Z,100217.27
2018-06-29T15:09:59.505Z,100203.26
2018-06-29T15:12:27.393Z,100209.47
2018-06-29T15:14:55.277Z,100215.91
2018-06-29T15:17:23.140Z,100211.41
2018-06-29T15:19:50.971Z,100205.78
2018-06-29T15:22:18.921Z,100204.16
2018-06-29T15:24:46.781Z,100199.61
2018-06-29T15:27:14.693Z,100199.74
2018-06-29T15:29:42.709Z,100196.64
2018-06-29T15:32:10.569Z,100198.59
2018-06-29T15:34:38.653Z,100203.63
2018-06-29T15:37:06.698Z,100204.70
2018-06-29T15:39:34.585Z,100201.50
2018-06-29T15:42:03.819Z,100199.44
2018-06-29T15:44:33.202Z,100196.84
2018-06-29T15:47:04.699Z,100193.53
2018-06-29T15:49:38.526Z,100191.95
2018-06-29T15:52:06.470Z,100196.03
2018-06-29T15:54:35.773Z,100192.64
2018-06-29T15:57:03.688Z,100188.19
2018-06-29T15:59:31.548Z,100193.86
2018-06-29T16:01:59.618Z,100190.41
2018-06-29T16:04:27.556Z,100182.44
2018-06-29T16:06:55.779Z,100189.70
2018-06-29T16:09:23.656Z,100192.89
2018-06-29T16:11:51.874Z,100192.52
2018-06-29T16:14:19.705Z,100193.55
2018-06-29T16:16:47.601Z,100184.90
2018-06-29T16:19:15.581Z,100184.48
2018-06-29T16:21:43.502Z,100182.42
2018-06-29T16:24:11.555Z,100183.58
2018-06-29T16:26:39.585Z,100179.52
2018-06-29T16:29:07.490Z,100179.08
2018-06-29T16:31:35.390Z,100174.31
2018-06-29T16:34:03.361Z,100173.30
2018-06-29T16:36:31.321Z,100172.60
2018-06-29T16:38:59.493Z,100172.39
2018-06-29T16:41:27.745Z,100173.55
2018-06-29T16:43:55.699Z,100174.67
2018-06-29T16:46:23.627Z,100172.73
2018-06-29T16:48:51.586Z,100175.16
2018-06-29T16:51:20.109Z,100169.58
2018-06-29T16:53:48.033Z,100170.73
2018-06-29T16:56:15.933Z,100166.77
2018-06-29T16:58:43.825Z,100165.61
2018-06-29T17:01:11.853Z,100166.92
2018-06-29T17:03:39.908Z,100166.61
2018-06-29T17:06:07.847Z,100164.44
2018-06-29T17:08:35.838Z,100166.14
2018-06-29T17:11:03.837Z,100168.34
2018-06-29T17:13:32.228Z,100164.67
2018-06-29T17:16:00.124Z,100168.75
2018-06-29T17:18:28.066Z,100166.69
2018-06-29T17:20:55.975Z,100160.81
2018-06-29T17:23:24.017Z,100165.53
2018-06-29T17:25:51.929Z,100165.77
2018-06-29T17:28:19.847Z,100168.00
2018-06-29T17:30:47.760Z,100163.08
2018-06-29T17:33:15.649Z,100161.55
2018-06-29T17:35:43.549Z,100155.28
2018-06-29T17:38:11.805Z,100161.20
2018-06-29T17:40:39.734Z,100156.63
2018-06-29T17:43:07.561Z,100163.45
2018-06-29T17:45:35.466Z,100155.79
2018-06-29T17:48:03.378Z,100155.41
2018-06-29T17:50:31.325Z,100154.70
2018-06-29T17:52:59.190Z,100154.43
2018-06-29T17:55:27.138Z,100155.03
2018-06-29T17:57:54.982Z,100148.01
2018-06-29T18:00:22.876Z,100159.47
2018-06-29T18:02:50.752Z,100149.51
2018-06-29T18:05:18.724Z,100151.20
2018-06-29T18:07:46.666Z,100153.09
2018-06-29T18:10:14.652Z,100156.48
2018-06-29T18:12:42.760Z,100158.25
2018-06-29T18:15:11.875Z,100158.13
2018-06-29T18:17:40.824Z,100159.63
2018-06-29T18:20:09.782Z,100156.81
2018-06-29T18:22:37.773Z,100158.18
2018-06-29T18:25:06.698Z,100157.28
2018-06-29T18:27:34.654Z,100156.64
2018-06-29T18:30:03.126Z,100152.36
2018-06-29T18:32:31.003Z,100156.42
2018-06-29T18:35:02.679Z,100155.25
2018-06-29T18:37:30.648Z,100153.41
2018-06-29T18:39:58.629Z,100153.22
2018-06-29T18:42:26.558Z,100152.20
2018-06-29T18:44:54.548Z,100151.30
2018-06-29T18:47:22.382Z,100151.83
2018-06-29T18:49:50.609Z,100158.19
2018-06-29T18:52:18.407Z,100156.69
2018-06-29T18:54:46.272Z,100160.96
2018-06-29T18:57:14.193Z,100165.31
2018-06-29T18:59:42.141Z,100169.86
2018-06-29T19:02:11.110Z,100166.58
2018-06-29T19:04:38.944Z,100167.25
2018-06-29T19:07:07.077Z,100167.79
2018-06-29T19:09:35.060Z,100169.73
2018-06-29T19:12:11.053Z,100170.70
2018-06-29T19:14:38.977Z,100169.56
2018-06-29T19:17:08.109Z,100173.67
2018-06-29T19:19:45.917Z,100179.11
2018-06-29T19:22:14.197Z,100178.59
2018-06-29T19:24:42.093Z,100174.64
2018-06-29T19:27:09.950Z,100180.54
2018-06-29T19:29:37.876Z,100186.72
2018-06-29T19:32:05.757Z,100185.31
2018-06-29T19:34:33.647Z,100186.79
2018-06-29T19:37:01.572Z,100194.30
2018-06-29T19:39:29.566Z,100196.89
2018-06-29T19:41:57.345Z,100195.97
2018-06-29T19:44:25.306Z,100194.13
2018-06-29T19:46:53.224Z,100196.03
2018-06-29T19:49:21.221Z,100196.82
2018-06-29T19:51:49.105Z,100204.06
2018-06-29T19:54:17.081Z,100199.63
2018-06-29T19:56:44.984Z,100205.48
2018-06-29T19:59:12.889Z,100208.50
2018-06-29T20:01:40.833Z,100208.45
2018-06-29T20:04:08.773Z,100204.01
2018-06-29T20:06:36.577Z,100212.95
2018-06-29T20:09:08.796Z,100218.67
2018-06-29T20:11:36.854Z,100213.73
2018-06-29T20:14:04.774Z,100215.00
2018-06-29T20:16:32.668Z,100215.20
2018-06-29T20:19:04.533Z,100216.81
2018-06-29T20:21:32.505Z,100213.77
2018-06-29T20:24:00.453Z,100223.09
2018-06-29T20:26:28.468Z,100237.26
2018-06-29T20:28:56.433Z,100231.54
2018-06-29T20:31:24.387Z,100220.78
2018-06-29T20:33:52.325Z,100223.95
2018-06-29T20:36:20.190Z,100233.20
2018-06-29T20:38:48.147Z,100228.11
2018-06-29T20:41:16.084Z,100232.36
2018-06-29T20:43:44.037Z,100232.39
2018-06-29T20:46:12.009Z,100238.36
2018-06-29T20:48:39.854Z,100239.02
2018-06-29T20:51:07.753Z,100236.45
2018-06-29T20:53:35.729Z,100237.67
2018-06-29T20:56:03.681Z,100242.62
2018-06-29T20:58:31.547Z,100241.17
2018-06-29T21:00:59.423Z,100239.98
2018-06-29T21:03:27.389Z,100237.41
2018-06-29T21:05:55.357Z,100242.92
2018-06-29T21:08:23.300Z,100240.92
2018-06-29T21:10:51.296Z,100242.96
2018-06-29T21:13:19.185Z,100246.91
2018-06-29T21:15:47.197Z,100247.25
2018-06-29T21:18:15.069Z,100247.82
2018-06-29T21:20:42.982Z,100248.88
2018-06-29T21:23:10.873Z,100245.69
2018-06-29T21:25:38.741Z,100249.31
2018-06-29T21:28:06.637Z,100257.63
2018-06-29T21:30:34.625Z,100253.50
2018-06-29T21:33:02.622Z,100256.14
2018-06-29T21:35:30.564Z,100260.09
2018-06-29T21:37:58.405Z,100252.70
2018-06-29T21:40:26.350Z,100247.86
2018-06-29T21:42:54.228Z,100257.30
2018-06-29T21:45:22.169Z,100250.22
2018-06-29T21:47:50.036Z,100251.30
2018-06-29T21:50:17.974Z,100253.91
2018-06-29T21:52:48.931Z,100249.88
2018-06-29T21:55:20.027Z,100256.27
2018-06-29T21:57:49.807Z,100254.92
2018-06-29T22:00:19.314Z,100260.99
2018-06-29T22:02:47.260Z,100261.31
2018-06-29T22:05:16.363Z,100267.28
2018-06-29T22:07:44.637Z,100265.14
2018-06-29T22:10:14.642Z,100266.30
2018-06-29T22:12:45.683Z,100267.53
2018-06-29T22:15:20.879Z,100264.94
2018-06-29T22:17:51.004Z,100257.39
2018-06-29T22:20:19.092Z,100265.73
2018-06-29T22:22:46.971Z,100265.49
2018-06-29T22:25:14.874Z,100258.47
2018-06-29T22:27:42.753Z,100262.84
2018-06-29T22:30:10.682Z,100264.31
2018-06-29T22:32:39.352Z,100259.83
2018-06-29T22:35:07.351Z,100263.41
2018-06-29T22:37:36.933Z,100265.25
2018-06-29T22:40:06.718Z,100264.76
2018-06-29T22:42:35.929Z,100267.09
2018-06-29T22:45:06.747Z,100264.72
2018-06-29T22:47:34.757Z,100268.94
2018-06-29T22:50:02.715Z,100271.60
2018-06-29T22:52:30.629Z,100264.14
2018-06-29T22:54:58.489Z,100268.52
2018-06-29T22:57:26.427Z,100269.29
2018-06-29T22:59:54.360Z,100267.39
2018-06-29T23:02:22.237Z,100273.78
2018-06-29T23:04:50.152Z,100269.23
2018-06-29T23:07:18.018Z,100267.39
2018-06-29T23:09:45.920Z,100271.08
2018-06-29T23:12:13.854Z,100277.16
2018-06-29T23:14:46.276Z,100265.07
2018-06-29T23:17:14.193Z,100265.94
2018-06-29T23:19:42.043Z,100269.61
2018-06-29T23:22:10.445Z,100264.25
2018-06-29T23:24:40.782Z,100265.44
2018-06-29T23:27:08.641Z,100265.05
2018-06-29T23:29:36.576Z,100273.25
2018-06-29T23:32:04.432Z,100263.95
2018-06-29T23:34:32.282Z,100266.16
2018-06-29T23:37:00.202Z,100263.09
2018-06-29T23:39:28.125Z,100267.80
2018-06-29T23:41:56.070Z,100268.65
2018-06-29T23:44:29.465Z,100270.85
2018-06-29T23:46:57.679Z,100267.08
2018-06-29T23:49:25.597Z,100263.50
2018-06-29T23:51:53.604Z,100267.67
2018-06-29T23:54:21.520Z,100267.40
2018-06-29T23:56:49.459Z,100269.81
2018-06-29T23:59:17.357Z,100270.78
